CEP7 weather

Elk Point Health Care Centre Heliport
Elk Point, Alberta, Canada

Public forecast

Using degrees Celsius for public forecast. Weather courtesy of forecast.io.

METAR (pilot weather report)

Closest report is CFB Cold Lake, 37.6 nm (69.7 km) NE. Retrieved 2019/04/23 15:00 UTC (37 minutes ago):

CYOD 231500Z 29017G27KT 15SM BKN250 11/M01 A2969 RMK CI5 SLP062

TAF (pilot weather forecast)

Closest forecast is CFB Cold Lake, 37.6 nm (69.7 km) NE. Retrieved 2019/04/23 15:35 UTC (2 minutes ago):

TAF CYOD 231430Z 2315/2412 28015G25KT P6SM FEW050 FEW110 FEW250 BECMG 2404/2406 29012KT RMK NXT FCST BY 231800Z